Time;durP1;ratioP1;P1;durP2;ratioP2;P2;SDS_P1;SDS_P2;PMS_P1;PMS_P2;Temp;Humidity;BMP_temperature;BMP_pressure;BME280_temperature;BME280_humidity;BME280_pressure;Samples;Min_cycle;Max_cycle;Signal;HPM_P1;HPM_P2
2022/10/22 00:03:02;;;;;;;10.17;7.67;;;;;;;11.27;100.00;100225.31;5234812;55;1143135;-74
2022/10/22 00:08:07;;;;;;;12.90;9.93;;;;;;;11.28;100.00;100233.62;5121743;57;1143301;-76
2022/10/22 00:13:14;;;;;;;19.53;12.57;;;;;;;11.26;100.00;100231.58;5116611;58;1143148;-72
2022/10/22 00:18:20;;;;;;;19.40;13.30;;;;;;;11.25;100.00;100237.84;5096555;57;1145507;-75
2022/10/22 00:23:25;;;;;;;19.40;13.50;;;;;;;11.25;100.00;100245.78;4993378;58;1145260;-72
2022/10/22 00:28:31;;;;;;;19.03;11.77;;;;;;;11.26;100.00;100245.30;5034169;58;1145235;-75
2022/10/22 00:33:37;;;;;;;18.80;13.20;;;;;;;11.22;100.00;100236.77;4942949;59;1145245;-75
2022/10/22 00:38:43;;;;;;;23.43;14.33;;;;;;;11.22;100.00;100236.77;4942971;58;1145237;-74
2022/10/22 00:44:05;;;;;;;19.53;11.63;;;;;;;11.21;100.00;100240.87;4943117;58;1145517;-75
2022/10/22 00:49:11;;;;;;;18.37;15.00;;;;;;;11.16;100.00;100224.52;4940609;58;1144533;-73
2022/10/22 00:54:17;;;;;;;20.67;15.47;;;;;;;11.15;100.00;100212.29;4992467;58;1145235;-76
2022/10/22 00:59:24;;;;;;;22.03;12.97;;;;;;;11.17;100.00;100215.62;5049943;58;1145299;-73
2022/10/22 01:04:29;;;;;;;17.83;12.53;;;;;;;11.16;100.00;100208.16;5116413;58;1145418;-75
2022/10/22 01:09:46;;;;;;;23.07;14.23;;;;;;;11.16;100.00;100213.45;5116295;58;1145302;-73
2022/10/22 01:15:20;;;;;;;17.67;12.83;;;;;;;11.18;100.00;100212.00;5091729;57;1143536;-75
2022/10/22 01:20:55;;;;;;;26.37;16.90;;;;;;;11.18;100.00;100201.41;5105727;57;1143225;-74
2022/10/22 01:26:17;;;;;;;20.53;14.60;;;;;;;11.21;100.00;100197.19;5116326;58;1143182;-75
2022/10/22 01:31:27;;;;;;;24.52;16.85;;;;;;;11.21;100.00;100197.19;5061965;58;1145155;-75
2022/10/22 01:36:35;;;;;;;23.53;16.03;;;;;;;11.20;100.00;100184.92;5182278;56;1145238;-72
2022/10/22 01:41:48;;;;;;;22.62;13.90;;;;;;;11.21;100.00;100169.40;5215273;56;1145092;-74
2022/10/22 01:46:56;;;;;;;25.40;16.77;;;;;;;11.24;100.00;100173.95;5214756;56;1145214;-75
2022/10/22 01:52:09;;;;;;;20.73;15.27;;;;;;;11.25;100.00;100176.11;5179302;56;1145249;-75
2022/10/22 01:57:34;;;;;;;21.20;15.20;;;;;;;11.25;100.00;100184.05;5129533;57;1145250;-74
2022/10/22 02:03:08;;;;;;;23.13;15.83;;;;;;;11.24;100.00;100185.02;5206670;56;1145246;-73
2022/10/22 02:08:18;;;;;;;29.25;16.15;;;;;;;11.24;100.00;100179.73;5174533;56;1145270;-75
2022/10/22 02:13:40;;;;;;;30.03;17.23;;;;;;;11.25;100.00;100176.11;5215078;56;1145193;-75
2022/10/22 02:18:49;;;;;;;19.60;14.60;;;;;;;11.22;100.00;100189.13;5164084;56;1145249;-75
2022/10/22 02:23:55;;;;;;;26.53;16.77;;;;;;;11.24;100.00;100175.27;5116131;57;1145474;-72
2022/10/22 02:29:24;;;;;;;17.63;12.17;;;;;;;11.24;100.00;100184.54;5116089;58;1145372;-73
2022/10/22 02:34:32;;;;;;;21.27;15.43;;;;;;;11.22;100.00;100193.09;5068128;57;1145237;-73
2022/10/22 02:39:40;;;;;;;22.03;16.07;;;;;;;11.22;100.00;100212.11;5033699;58;1145260;-73
2022/10/22 02:44:45;;;;;;;21.13;16.03;;;;;;;11.22;100.00;100202.84;4894599;60;1145493;-74
2022/10/22 02:49:51;;;;;;;25.40;15.73;;;;;;;11.22;100.00;100199.71;5003856;58;1145478;-75
2022/10/22 02:54:57;;;;;;;22.53;16.87;;;;;;;11.24;100.00;100185.86;5127945;57;1145224;-74
2022/10/22 03:00:04;;;;;;;26.60;17.63;;;;;;;11.27;100.00;100198.00;5130691;57;1143265;-75
2022/10/22 03:05:11;;;;;;;25.95;17.52;;;;;;;11.26;100.00;100198.97;5130565;57;1143176;-75
2022/10/22 03:10:17;;;;;;;22.00;16.37;;;;;;;11.24;100.00;100212.34;5053763;57;1143215;-73
2022/10/22 03:15:23;;;;;;;26.17;15.23;;;;;;;11.26;100.00;100207.75;5093764;57;1143441;-73
2022/10/22 03:20:29;;;;;;;29.13;16.77;;;;;;;11.29;100.00;100215.92;5159954;56;1143190;-75
2022/10/22 03:25:36;;;;;;;27.63;18.23;;;;;;;11.27;100.00;100222.67;5164743;56;1143170;-74
2022/10/22 03:30:42;;;;;;;32.23;18.60;;;;;;;11.26;100.00;100228.09;5225152;56;1143228;-75
2022/10/22 03:35:48;;;;;;;28.07;16.07;;;;;;;11.25;100.00;100225.92;5215644;56;1143428;-75
2022/10/22 03:40:55;;;;;;;29.83;18.07;;;;;;;11.24;100.00;100220.28;5135806;57;1143170;-73
2022/10/22 03:46:01;;;;;;;33.13;18.60;;;;;;;11.22;100.00;100202.36;4998507;58;1143168;-75
2022/10/22 03:51:07;;;;;;;33.63;16.73;;;;;;;11.28;100.00;100195.71;5100187;56;1143339;-75
2022/10/22 03:56:14;;;;;;;29.53;17.70;;;;;;;11.34;100.00;100193.84;5069200;57;1143215;-75
2022/10/22 04:01:20;;;;;;;37.00;20.40;;;;;;;11.34;100.00;100193.00;5037788;58;1143313;-74
2022/10/22 04:06:26;;;;;;;35.77;20.53;;;;;;;11.37;100.00;100209.95;5032856;58;1143043;-73
2022/10/22 04:11:32;;;;;;;44.30;20.37;;;;;;;11.38;100.00;100208.98;5024095;58;1143153;-75
2022/10/22 04:16:40;;;;;;;38.67;20.70;;;;;;;11.39;100.00;100197.43;4874734;59;1143168;-74
2022/10/22 04:21:45;;;;;;;33.23;19.50;;;;;;;11.41;100.00;100193.69;5030072;57;1143183;-73
2022/10/22 04:26:53;;;;;;;45.17;21.63;;;;;;;11.43;100.00;100187.77;4997845;58;1141132;-74
2022/10/22 04:32:00;;;;;;;38.78;21.90;;;;;;;11.43;100.00;100201.50;5012303;58;1145174;-74
2022/10/22 04:37:06;;;;;;;45.17;22.52;;;;;;;11.42;100.00;100199.34;4986300;57;1145180;-76
2022/10/22 04:42:12;;;;;;;31.90;19.53;;;;;;;11.41;100.00;100200.78;4974102;58;1145215;-76
2022/10/22 04:47:17;;;;;;;40.57;22.57;;;;;;;11.40;100.00;100211.02;4998775;58;1154943;-74
2022/10/22 04:52:23;;;;;;;49.80;23.00;;;;;;;11.41;100.00;100204.76;5039939;56;1145202;-74
2022/10/22 04:57:33;;;;;;;39.83;21.73;;;;;;;11.41;100.00;100206.08;5161852;57;1145194;-73
2022/10/22 05:02:38;;;;;;;29.13;17.40;;;;;;;11.43;100.00;100209.44;5148700;57;1145176;-73
2022/10/22 05:07:44;;;;;;;40.70;23.00;;;;;;;11.40;100.00;100220.30;5034652;57;1145254;-74
2022/10/22 05:12:50;;;;;;;46.70;24.77;;;;;;;11.37;100.00;100220.06;5036159;58;1145219;-73
2022/10/22 05:17:56;;;;;;;46.73;23.87;;;;;;;11.35;100.00;100240.53;5045103;57;1145384;-75
2022/10/22 05:23:02;;;;;;;53.57;25.30;;;;;;;11.34;100.00;100230.91;5056475;57;1145174;-72
2022/10/22 05:28:07;;;;;;;53.57;25.20;;;;;;;11.36;100.00;100222.84;5124879;57;1145448;-72
2022/10/22 05:33:13;;;;;;;43.47;23.23;;;;;;;11.37;100.00;100229.33;5125138;57;1145397;-73
2022/10/22 05:38:20;;;;;;;66.50;25.80;;;;;;;11.38;100.00;100227.04;5085765;57;1145206;-73
2022/10/22 05:43:26;;;;;;;47.90;24.97;;;;;;;11.41;100.00;100218.00;5129226;57;1145269;-74
2022/10/22 05:48:32;;;;;;;37.07;21.40;;;;;;;11.41;100.00;100221.97;5071752;57;1145201;-72
2022/10/22 05:53:41;;;;;;;40.50;23.03;;;;;;;11.44;100.00;100230.50;5109873;56;1145287;-73
2022/10/22 05:58:46;;;;;;;44.37;25.83;;;;;;;11.42;100.00;100253.63;5159462;56;1145556;-74
2022/10/22 06:03:58;;;;;;;44.60;24.77;;;;;;;11.46;100.00;100269.58;5179472;56;1145286;-73
2022/10/22 06:09:30;;;;;;;42.63;24.63;;;;;;;11.47;100.00;100254.53;5218519;56;1145380;-74
2022/10/22 06:14:36;;;;;;;42.10;24.23;;;;;;;11.49;100.00;100240.19;5216105;56;1145283;-76
2022/10/22 06:19:43;;;;;;;43.90;23.07;;;;;;;11.49;100.00;100249.94;5169571;56;1145241;-76
2022/10/22 06:24:49;;;;;;;47.50;23.27;;;;;;;11.48;100.00;100246.94;5085376;57;1145161;-73
2022/10/22 06:29:54;;;;;;;41.83;23.73;;;;;;;11.51;100.00;100256.80;5157860;56;1145253;-73
2022/10/22 06:35:00;;;;;;;46.23;25.00;;;;;;;11.53;100.00;100268.58;5182601;56;1145362;-74
2022/10/22 06:40:06;;;;;;;43.87;24.90;;;;;;;11.55;100.00;100274.11;5255198;55;1145304;-73
2022/10/22 06:45:11;;;;;;;37.87;21.30;;;;;;;11.57;100.00;100285.42;5223301;55;1145223;-74
2022/10/22 06:50:18;;;;;;;41.63;24.63;;;;;;;11.59;100.00;100282.16;5165206;56;1145224;-73
2022/10/22 06:55:23;;;;;;;43.83;24.50;;;;;;;11.59;100.00;100287.94;5181377;56;1145236;-74
2022/10/22 07:00:29;;;;;;;45.53;25.87;;;;;;;11.67;100.00;100291.23;5182711;56;1145144;-74
2022/10/22 07:05:35;;;;;;;45.73;25.00;;;;;;;11.71;100.00;100296.64;5228731;56;1145404;-73
2022/10/22 07:10:41;;;;;;;41.77;19.53;;;;;;;11.74;100.00;100310.95;5228855;56;1145230;-73
2022/10/22 07:15:54;;;;;;;45.13;24.70;;;;;;;11.77;100.00;100302.27;5228681;56;1145363;-73
2022/10/22 07:20:59;;;;;;;;;;;;;;;11.78;100.00;100285.39;5148481;56;1143705;-73
2022/10/22 07:26:07;;;;;;;52.10;24.43;;;;;;;11.87;100.00;100301.84;5145233;57;976559;-74
2022/10/22 07:31:15;;;;;;;52.87;23.03;;;;;;;11.92;100.00;100318.65;5124164;56;1141163;-74
2022/10/22 07:36:21;;;;;;;53.33;30.53;;;;;;;11.90;100.00;100321.45;5247031;55;1143185;-73
2022/10/22 07:41:28;;;;;;;50.00;25.60;;;;;;;11.93;100.00;100309.24;5239985;55;1143141;-74
2022/10/22 07:46:34;;;;;;;69.43;25.80;;;;;;;11.92;100.00;100316.00;5188335;55;1143162;-74
2022/10/22 07:51:40;;;;;;;46.87;24.63;;;;;;;11.93;100.00;100325.14;5193313;56;1143141;-74
2022/10/22 07:56:46;;;;;;;60.00;26.03;;;;;;;11.95;100.00;100330.31;5179553;56;1143144;-74
2022/10/22 08:01:52;;;;;;;56.20;26.23;;;;;;;11.97;100.00;100320.42;5179825;56;1143344;-73
2022/10/22 08:06:58;;;;;;;47.90;23.77;;;;;;;12.00;100.00;100329.45;5160003;57;1143102;-74
2022/10/22 08:12:05;;;;;;;42.87;22.70;;;;;;;12.02;100.00;100337.27;5176588;56;1143289;-73
2022/10/22 08:17:11;;;;;;;43.67;20.83;;;;;;;12.03;100.00;100335.81;5161863;57;1143319;-74
2022/10/22 08:22:17;;;;;;;35.70;18.17;;;;;;;12.08;100.00;100330.09;5129344;56;1143153;-73
2022/10/22 08:27:23;;;;;;;52.60;27.53;;;;;;;12.11;100.00;100328.02;5140988;57;1143182;-73
2022/10/22 08:32:28;;;;;;;48.47;25.70;;;;;;;12.12;100.00;100324.88;5163960;57;1143202;-74
2022/10/22 08:37:34;;;;;;;49.87;26.67;;;;;;;12.18;100.00;100327.85;5150927;56;1143224;-74
2022/10/22 08:43:19;;;;;;;60.73;27.43;;;;;;;12.23;100.00;100326.10;5200211;56;1141119;-74
2022/10/22 08:48:47;;;;;;;50.83;25.30;;;;;;;12.24;100.00;100335.73;5240648;56;1145272;-74
2022/10/22 08:54:20;;;;;;;51.37;24.27;;;;;;;12.32;100.00;100346.53;5244832;56;1145254;-75
2022/10/22 08:59:30;;;;;;;63.70;27.43;;;;;;;12.32;100.00;100346.53;5201920;56;1145271;-75
2022/10/22 09:04:43;;;;;;;71.83;29.97;;;;;;;12.31;100.00;100349.67;5197545;55;1145336;-73
2022/10/22 09:09:50;;;;;;;;;;;;;;;12.30;100.00;100349.31;5232764;55;1145143;-74
2022/10/22 09:14:56;;;;;;;89.67;34.20;;;;;;;12.29;100.00;100347.63;5189451;55;978581;-74
2022/10/22 09:20:22;;;;;;;61.57;29.20;;;;;;;12.29;100.00;100347.63;5191737;56;1143415;-74
2022/10/22 09:25:31;;;;;;;60.40;25.00;;;;;;;12.38;100.00;100367.19;5129532;56;1145195;-75
2022/10/22 09:30:39;;;;;;;67.10;31.23;;;;;;;12.40;100.00;100358.62;5104113;56;1145220;-73
2022/10/22 09:36:06;;;;;;;54.03;26.33;;;;;;;12.40;100.00;100358.62;5149577;56;1145292;-73
2022/10/22 09:41:11;;;;;;;78.33;30.40;;;;;;;12.48;100.00;100369.41;5094939;57;1145408;-74
2022/10/22 09:46:21;;;;;;;72.30;31.00;;;;;;;12.53;100.00;100370.31;5097403;56;1145312;-73
2022/10/22 09:51:58;;;;;;;68.53;30.20;;;;;;;12.57;100.00;100363.77;5199701;55;1143465;-75
2022/10/22 09:57:20;;;;;;;70.27;31.07;;;;;;;12.60;100.00;100360.36;5156498;56;1143459;-73
2022/10/22 10:02:28;;;;;;;;;;;;;;;12.64;100.00;100351.16;5154572;55;1143387;-73
2022/10/22 10:07:35;;;;;;;64.57;29.57;;;;;;;12.68;100.00;100355.69;5145338;57;976821;-73
2022/10/22 10:12:54;;;;;;;74.07;31.53;;;;;;;12.73;100.00;100361.44;5213190;56;1141223;-74
2022/10/22 10:18:25;;;;;;;79.70;30.83;;;;;;;12.77;100.00;100375.28;5228857;56;1141037;-74
2022/10/22 10:23:41;;;;;;;72.20;33.60;;;;;;;12.79;100.00;100375.98;5204609;56;1145209;-74
2022/10/22 10:29:19;;;;;;;62.27;29.50;;;;;;;12.80;100.00;100390.94;5198846;56;1145495;-73
2022/10/22 10:34:58;;;;;;;61.53;29.87;;;;;;;12.80;100.00;100385.63;5193471;56;1145211;-75
2022/10/22 10:40:20;;;;;;;50.43;24.77;;;;;;;12.81;100.00;100393.45;5212585;55;1145150;-75
2022/10/22 10:45:53;;;;;;;65.37;26.60;;;;;;;12.82;100.00;100389.83;5220891;55;1145214;-74
2022/10/22 10:51:07;;;;;;;58.90;27.20;;;;;;;12.82;100.00;100385.84;5228486;55;1145253;-75
2022/10/22 10:56:39;;;;;;;65.93;32.53;;;;;;;12.82;100.00;100387.17;5202234;56;1145537;-75
2022/10/22 11:01:58;;;;;;;51.33;25.90;;;;;;;12.86;100.00;100387.72;5214568;56;1143126;-75
2022/10/22 11:07:07;;;;;;;46.77;23.67;;;;;;;12.85;100.00;100386.88;5203922;56;1143320;-73
2022/10/22 11:12:22;;;;;;;34.80;19.00;;;;;;;12.88;100.00;100379.97;5182175;56;1143162;-74
2022/10/22 11:17:36;;;;;;;37.57;18.80;;;;;;;12.93;100.00;100380.89;5183359;56;1143096;-73
2022/10/22 11:23:08;;;;;;;25.55;16.30;;;;;;;12.95;100.00;100377.62;5182036;56;1143048;-74
2022/10/22 11:28:36;;;;;;;30.02;17.95;;;;;;;12.97;100.00;100380.98;5196706;56;1141577;-74
2022/10/22 11:34:01;;;;;;;25.50;17.27;;;;;;;13.00;100.00;100378.86;5101893;57;1145296;-73
2022/10/22 11:39:06;;;;;;;24.43;15.40;;;;;;;13.02;100.00;100372.94;5191365;56;1145235;-74
2022/10/22 11:44:24;;;;;;;21.80;13.80;;;;;;;13.10;100.00;100370.09;5216968;56;1145277;-73
2022/10/22 11:49:56;;;;;;;20.83;13.73;;;;;;;13.17;100.00;100367.25;5216887;56;1145358;-74
2022/10/22 11:55:09;;;;;;;20.00;13.90;;;;;;;13.20;100.00;100376.27;5088258;57;1145225;-74
2022/10/22 12:00:34;;;;;;;;;;;;;;;13.22;100.00;100375.64;5163301;56;1145469;-74
2022/10/22 12:05:40;;;;;;;42.30;25.73;;;;;;;13.28;100.00;100367.13;5202526;56;978270;-74
2022/10/22 12:11:04;;;;;;;99.73;70.13;;;;;;;13.31;100.00;100359.70;5142923;56;1143199;-74
2022/10/22 12:16:13;;;;;;;37.33;27.90;;;;;;;13.35;100.00;100351.80;5142841;56;1145302;-75
2022/10/22 12:21:19;;;;;;;38.07;25.07;;;;;;;13.40;100.00;100355.37;5149922;56;1145239;-74
2022/10/22 12:26:33;;;;;;;29.97;16.60;;;;;;;13.41;100.00;100346.42;5170668;56;1145539;-75
2022/10/22 12:31:39;;;;;;;;;;;;;;;13.45;100.00;100356.26;5203397;55;1145423;-76
2022/10/22 12:36:49;;;;;;;45.00;30.67;;;;;;;13.43;100.00;100351.60;5179302;55;978314;-76
2022/10/22 12:41:55;;;;;;;55.50;40.67;;;;;;;13.42;100.00;100343.28;5055619;56;1143284;-76
2022/10/22 12:47:02;;;;;;;22.60;18.87;;;;;;;13.40;100.00;100347.41;5028204;57;1143147;-75
2022/10/22 12:52:14;;;;;;;16.40;10.83;;;;;;;13.37;100.00;100346.35;5067221;56;1143283;-76
2022/10/22 12:57:23;;;;;;;13.73;10.47;;;;;;;13.37;100.00;100355.16;5041826;56;1143223;-76
2022/10/22 13:02:30;;;;;;;12.83;10.30;;;;;;;13.35;100.00;100352.30;5151473;56;1143286;-75
2022/10/22 13:07:42;;;;;;;18.03;11.60;;;;;;;13.33;100.00;100345.79;5120905;56;1143528;-75
2022/10/22 13:12:51;;;;;;;12.97;9.90;;;;;;;13.34;100.00;100355.92;5070740;57;1143254;-75
2022/10/22 13:18:17;;;;;;;13.83;10.23;;;;;;;13.34;100.00;100357.25;5131928;56;1141337;-76
2022/10/22 13:23:27;;;;;;;12.00;10.17;;;;;;;13.30;100.00;100372.63;5167060;56;1143164;-75
2022/10/22 13:28:33;;;;;;;14.57;9.73;;;;;;;13.27;100.00;100372.09;5187335;56;1143230;-74
2022/10/22 13:33:44;;;;;;;14.90;11.40;;;;;;;13.23;100.00;100371.52;5207393;56;1139277;-74
2022/10/22 13:38:51;;;;;;;12.95;10.58;;;;;;;13.21;100.00;100370.82;5190446;56;1145192;-74
2022/10/22 13:43:57;;;;;;;16.63;12.27;;;;;;;13.22;100.00;100369.00;5154861;56;1145209;-74
2022/10/22 13:49:04;;;;;;;14.50;9.97;;;;;;;13.25;100.00;100370.06;5194193;55;1145371;-74
2022/10/22 13:54:21;;;;;;;17.55;12.58;;;;;;;13.25;100.00;100370.90;5186664;55;1143047;-74
2022/10/22 13:59:26;;;;;;;19.17;14.90;;;;;;;13.24;100.00;100381.66;5187090;55;1145257;-74
2022/10/22 14:04:34;;;;;;;24.70;14.70;;;;;;;13.23;100.00;100366.70;5191644;55;1145236;-74
2022/10/22 14:09:40;;;;;;;23.23;16.00;;;;;;;13.22;100.00;100384.45;5158179;56;1145490;-74
2022/10/22 14:14:46;;;;;;;25.13;16.73;;;;;;;13.19;100.00;100380.73;5149915;55;1145308;-73
2022/10/22 14:19:52;;;;;;;25.53;17.13;;;;;;;13.17;100.00;100380.03;5145510;55;1145234;-73
2022/10/22 14:24:58;;;;;;;22.40;15.10;;;;;;;13.18;100.00;100382.20;5151962;55;1145264;-74
2022/10/22 14:30:05;;;;;;;28.03;17.77;;;;;;;13.20;100.00;100386.41;5163627;56;1146434;-74
2022/10/22 14:35:17;;;;;;;26.90;17.43;;;;;;;13.21;100.00;100394.72;5171919;56;1145293;-74
2022/10/22 14:40:23;;;;;;;21.20;14.27;;;;;;;13.24;100.00;100393.61;5204468;55;1145400;-75
2022/10/22 14:45:29;;;;;;;22.17;15.90;;;;;;;13.26;100.00;100393.83;5177602;56;1145390;-75
2022/10/22 14:50:35;;;;;;;22.13;15.33;;;;;;;13.26;100.00;100393.83;5148140;56;1145345;-74
2022/10/22 14:55:43;;;;;;;27.97;21.20;;;;;;;13.28;100.00;100396.34;5180692;56;1145509;-75
2022/10/22 15:00:50;;;;;;;25.37;17.10;;;;;;;13.29;100.00;100403.34;5200617;56;1145289;-75
2022/10/22 15:05:57;;;;;;;20.17;14.47;;;;;;;13.31;100.00;100402.69;5188850;56;1145510;-73
2022/10/22 15:11:10;;;;;;;23.47;17.63;;;;;;;13.31;100.00;100404.85;5179141;56;1145481;-73
2022/10/22 15:16:17;;;;;;;21.13;13.83;;;;;;;13.32;100.00;100406.53;5195090;55;1145498;-74
2022/10/22 15:21:24;;;;;;;20.27;14.40;;;;;;;13.33;100.00;100414.84;5194093;55;1145277;-76
2022/10/22 15:26:29;;;;;;;18.33;12.73;;;;;;;13.32;100.00;100420.30;5193612;55;1145343;-75
2022/10/22 15:31:56;;;;;;;20.50;15.00;;;;;;;13.30;100.00;100425.75;5191034;55;1145248;-75
2022/10/22 15:37:05;;;;;;;20.80;15.13;;;;;;;13.30;100.00;100429.73;5171833;55;1145594;-75
2022/10/22 15:42:13;;;;;;;24.40;15.20;;;;;;;13.31;100.00;100440.70;5022252;58;1145550;-74
2022/10/22 15:47:19;;;;;;;21.23;15.40;;;;;;;13.32;100.00;100438.89;5046046;57;1145307;-73
2022/10/22 15:52:24;;;;;;;26.90;19.10;;;;;;;13.34;100.00;100444.91;5083514;57;1145333;-74
2022/10/22 15:57:30;;;;;;;25.40;17.87;;;;;;;13.35;100.00;100451.91;5051129;57;1145304;-74
2022/10/22 16:02:36;;;;;;;29.67;16.40;;;;;;;13.37;100.00;100460.09;5030341;58;1145288;-74
2022/10/22 16:07:42;;;;;;;31.43;18.57;;;;;;;13.40;100.00;100456.81;5154963;56;1143214;-73
2022/10/22 16:12:50;;;;;;;38.13;20.17;;;;;;;13.40;100.00;100452.83;5128239;57;1145319;-74
2022/10/22 16:17:56;;;;;;;40.83;21.27;;;;;;;13.42;100.00;100462.83;5213070;56;1143225;-72
2022/10/22 16:23:02;;;;;;;39.67;21.13;;;;;;;13.43;100.00;100471.99;5213146;56;1143179;-72
2022/10/22 16:28:08;;;;;;;32.17;18.57;;;;;;;13.45;100.00;100477.98;5203313;56;1143413;-72
2022/10/22 16:33:15;;;;;;;40.93;20.43;;;;;;;13.48;100.00;100479.53;5152989;56;1143207;-72
2022/10/22 16:38:20;;;;;;;38.37;22.33;;;;;;;13.50;100.00;100482.40;5185150;56;1143075;-73
2022/10/22 16:43:26;;;;;;;41.73;22.70;;;;;;;13.52;100.00;100490.23;5224150;56;1143266;-72
2022/10/22 16:48:33;;;;;;;37.00;20.90;;;;;;;13.56;100.00;100494.30;5209900;56;1143580;-72
2022/10/22 16:53:39;;;;;;;40.53;19.33;;;;;;;13.56;100.00;100491.16;5122198;56;1143308;-72
2022/10/22 16:58:49;;;;;;;41.17;23.10;;;;;;;13.61;100.00;100501.35;5159622;56;1143265;-74
2022/10/22 17:03:57;;;;;;;37.80;22.93;;;;;;;13.62;100.00;100502.55;5144909;56;1143217;-73
2022/10/22 17:09:04;;;;;;;35.67;22.27;;;;;;;13.64;100.00;100511.22;5154320;56;1143112;-71
2022/10/22 17:14:10;;;;;;;37.67;23.20;;;;;;;13.65;100.00;100510.73;5211561;56;1143246;-73
2022/10/22 17:19:16;;;;;;;36.43;23.43;;;;;;;13.69;100.00;100518.30;5191770;55;1143147;-72
2022/10/22 17:24:22;;;;;;;42.00;23.80;;;;;;;13.71;100.00;100521.66;5232411;55;1143188;-78
2022/10/22 17:29:29;;;;;;;45.70;22.67;;;;;;;13.73;100.00;100521.03;5189787;56;1141376;-77
2022/10/22 17:34:35;;;;;;;39.97;22.63;;;;;;;13.74;100.00;100527.20;5220350;56;1141323;-77
2022/10/22 17:39:41;;;;;;;45.17;24.83;;;;;;;13.77;100.00;100534.03;5221711;55;1145296;-77
2022/10/22 17:44:47;;;;;;;42.67;23.00;;;;;;;13.76;100.00;100542.48;5103510;57;1145386;-77
2022/10/22 17:49:53;;;;;;;38.63;22.87;;;;;;;13.79;100.00;100548.02;5097358;57;1145481;-77
2022/10/22 17:54:59;;;;;;;38.10;22.37;;;;;;;13.78;100.00;100551.17;5201219;56;1145126;-77
2022/10/22 18:00:06;;;;;;;36.90;21.87;;;;;;;13.78;100.00;100549.84;5226954;56;1145402;-77
2022/10/22 18:05:13;;;;;;;42.13;23.77;;;;;;;13.78;100.00;100553.83;5172908;56;1145230;-77
2022/10/22 18:10:19;;;;;;;45.85;25.15;;;;;;;13.78;100.00;100558.30;5175335;56;1145235;-77
2022/10/22 18:15:25;;;;;;;45.97;25.23;;;;;;;13.78;100.00;100560.47;5209757;56;1145322;-75
2022/10/22 18:20:30;;;;;;;38.67;23.43;;;;;;;13.79;100.00;100563.48;5147824;56;1145181;-75
2022/10/22 18:25:39;;;;;;;41.60;25.60;;;;;;;13.78;100.00;100567.61;5216049;56;1145271;-76
2022/10/22 18:30:47;;;;;;;37.40;21.80;;;;;;;13.75;100.00;100571.38;5216334;56;1145244;-75
2022/10/22 18:35:53;;;;;;;39.33;23.90;;;;;;;13.74;100.00;100571.05;5195938;56;1145188;-77
2022/10/22 18:40:59;;;;;;;34.27;21.33;;;;;;;13.75;100.00;100575.36;5210005;56;1145240;-77
2022/10/22 18:46:07;;;;;;;32.10;23.67;;;;;;;13.75;100.00;100577.21;5214826;56;1145294;-77
2022/10/22 18:51:14;;;;;;;36.40;24.20;;;;;;;13.77;100.00;100577.88;5153261;56;1145241;-77
2022/10/22 18:56:21;;;;;;;34.07;22.37;;;;;;;13.75;100.00;100580.68;5125993;57;1145262;-77
2022/10/22 19:01:34;;;;;;;28.43;19.27;;;;;;;13.79;100.00;100591.39;5176541;56;1145254;-77
2022/10/22 19:06:44;;;;;;;36.87;22.70;;;;;;;13.78;100.00;100589.72;5174710;55;1145380;-77
2022/10/22 19:12:14;;;;;;;;;;;;;;;;;;;;;
2022/10/22 19:17:53;;;;;;;;;;;;;;;;;;;;;
2022/10/22 19:28:50;;;;;;;37.07;21.67;;;;;;;13.79;100.00;100608.67;5274438;54;46326;-76
2022/10/22 19:33:57;;;;;;;37.50;22.77;;;;;;;13.73;100.00;100619.39;5117010;56;1139003;-75
2022/10/22 19:39:05;;;;;;;28.23;20.07;;;;;;;13.76;100.00;100622.72;5123209;57;1143149;-75
2022/10/22 19:44:11;;;;;;;36.87;21.73;;;;;;;13.76;100.00;100630.20;5113761;57;1143443;-76
2022/10/22 19:49:17;;;;;;;31.80;20.50;;;;;;;13.76;100.00;100632.02;5127905;57;1143223;-78
2022/10/22 19:54:23;;;;;;;34.87;21.20;;;;;;;13.78;100.00;100640.22;5115473;57;1143386;-77
2022/10/22 19:59:28;;;;;;;30.20;19.97;;;;;;;13.77;100.00;100646.51;5122712;57;1143324;-77
2022/10/22 20:04:35;;;;;;;26.00;17.27;;;;;;;13.79;100.00;100651.20;5069927;57;1143220;-77
2022/10/22 20:09:41;;;;;;;27.93;17.50;;;;;;;13.79;100.00;100654.35;5070097;58;1143322;-77
2022/10/22 20:14:46;;;;;;;31.37;19.30;;;;;;;13.80;100.00;100659.53;5065859;57;1143236;-78
2022/10/22 20:19:52;;;;;;;33.83;18.93;;;;;;;13.81;100.00;100667.87;5098880;57;1143239;-78
2022/10/22 20:24:58;;;;;;;31.67;19.93;;;;;;;13.82;100.00;100672.70;4985482;58;1143323;-78
2022/10/22 20:30:06;;;;;;;28.07;18.70;;;;;;;13.81;100.00;100680.31;5013376;57;1141190;-78
2022/10/22 20:35:11;;;;;;;25.47;18.33;;;;;;;13.80;100.00;100683.95;5027978;58;1141234;-77
2022/10/22 20:40:18;;;;;;;33.00;17.10;;;;;;;13.79;100.00;100686.25;5012845;57;1145398;-78
2022/10/22 20:45:24;;;;;;;32.42;18.27;;;;;;;13.75;100.00;100684.34;5038546;57;1145292;-78
2022/10/22 20:50:31;;;;;;;26.03;16.90;;;;;;;13.70;100.00;100687.44;5151109;57;1145266;-78
2022/10/22 20:55:37;;;;;;;30.68;19.67;;;;;;;13.66;100.00;100687.83;5150959;57;1145500;-77
2022/10/22 21:00:45;;;;;;;26.67;18.20;;;;;;;13.64;100.00;100699.08;5130664;57;1145251;-78
2022/10/22 21:05:51;;;;;;;52.33;23.20;;;;;;;13.62;100.00;100701.02;5137536;57;1145298;-77
2022/10/22 21:10:57;;;;;;;41.77;22.90;;;;;;;13.64;100.00;100704.39;5134439;56;1145550;-77
2022/10/22 21:16:18;;;;;;;40.63;24.60;;;;;;;13.63;100.00;100710.68;5144083;56;1144803;-77
2022/10/22 21:21:20;;;;;;;59.10;32.40;;;;;;;13.63;100.00;100709.34;5122813;56;1145481;-78
2022/10/22 21:26:25;;;;;;;57.10;29.03;;;;;;;13.64;100.00;100711.03;5196382;56;1145264;-78
2022/10/22 21:31:31;;;;;;;79.27;31.07;;;;;;;13.60;100.00;100711.78;5190620;56;1145351;-77
2022/10/22 21:36:37;;;;;;;64.50;27.23;;;;;;;13.55;100.00;100713.18;5193197;56;1145264;-78
2022/10/22 21:41:42;;;;;;;66.03;33.13;;;;;;;13.50;100.00;100706.08;5224783;56;1145282;-78
2022/10/22 21:46:49;;;;;;;39.70;26.97;;;;;;;13.45;100.00;100705.14;5241332;56;1145331;-77
2022/10/22 21:51:55;;;;;;;48.77;28.73;;;;;;;13.41;100.00;100706.41;5217797;56;1145287;-77
2022/10/22 21:57:00;;;;;;;49.37;28.30;;;;;;;13.34;100.00;100716.70;5152980;57;1145486;-77
2022/10/22 22:02:06;;;;;;;42.33;28.17;;;;;;;13.27;100.00;100719.55;5238808;56;1145265;-78
2022/10/22 22:07:12;;;;;;;56.73;28.50;;;;;;;13.18;100.00;100716.82;5215899;56;1145194;-77
2022/10/22 22:12:20;;;;;;;67.60;20.60;;;;;;;13.19;100.00;100731.78;5251468;56;1145178;-77
2022/10/22 22:17:26;;;;;;;30.40;19.13;;;;;;;13.08;100.00;100731.34;5251856;56;1145163;-77
2022/10/22 22:22:32;;;;;;;36.67;18.80;;;;;;;12.95;100.00;100730.22;5251781;56;1145233;-77
2022/10/22 22:27:38;;;;;;;34.10;19.77;;;;;;;12.91;100.00;100738.07;5248630;56;1145288;-77
2022/10/22 22:32:44;;;;;;;34.70;20.57;;;;;;;12.88;100.00;100736.16;5205198;56;1145221;-77
2022/10/22 22:37:51;;;;;;;30.37;19.30;;;;;;;12.85;100.00;100744.36;5120667;57;1145254;-77
2022/10/22 22:42:56;;;;;;;40.23;21.40;;;;;;;12.83;100.00;100748.98;5075386;57;1145179;-77
2022/10/22 22:48:03;;;;;;;36.87;20.13;;;;;;;12.83;100.00;100747.66;5089870;57;1145189;-77
2022/10/22 22:53:09;;;;;;;58.20;22.73;;;;;;;12.83;100.00;100753.78;5118161;57;1145206;-77
2022/10/22 22:58:16;;;;;;;52.90;22.50;;;;;;;12.90;100.00;100753.64;5108774;57;1145239;-77